createdAt,value
2017-12-12T00:00:24.725Z,21.2
2017-12-12T00:01:26.344Z,21.2
2017-12-12T00:02:28.242Z,21.1
2017-12-12T00:03:30.065Z,21.2
2017-12-12T00:04:31.387Z,21.2
2017-12-12T00:05:32.428Z,21.2
2017-12-12T00:06:34.047Z,21.1
2017-12-12T00:07:35.665Z,21
2017-12-12T00:08:37.285Z,21.2
2017-12-12T00:09:38.047Z,21.1
2017-12-12T00:10:39.666Z,21.2
2017-12-12T00:11:41.563Z,21.1
2017-12-12T00:12:43.464Z,21.2
2017-12-12T00:13:44.512Z,21.1
2017-12-12T00:14:45.848Z,21.2
2017-12-12T00:15:47.154Z,21.2
2017-12-12T00:16:48.770Z,21.1
2017-12-12T00:17:50.389Z,21.1
2017-12-12T00:18:52.011Z,21.1
2017-12-12T00:19:53.327Z,21.2
2017-12-12T00:20:54.731Z,21.1
2017-12-12T00:21:56.327Z,21.1
2017-12-12T00:22:57.648Z,21.1
2017-12-12T00:23:58.970Z,21.2
2017-12-12T00:25:00.589Z,21.1
2017-12-12T00:26:01.936Z,21.1
2017-12-12T00:27:03.552Z,21
2017-12-12T00:28:05.174Z,21.1
2017-12-12T00:29:06.794Z,21.1
2017-12-12T00:30:08.392Z,21.1
2017-12-12T00:31:10.288Z,21.1
2017-12-12T00:32:11.906Z,21.1
2017-12-12T00:33:13.228Z,21.1
2017-12-12T00:34:15.123Z,21.1
2017-12-12T00:35:16.742Z,21.1
2017-12-12T00:36:18.062Z,21.2
2017-12-12T00:37:20.009Z,21.1
2017-12-12T00:38:21.625Z,21.1
2017-12-12T00:39:22.993Z,21.1
2017-12-12T00:40:24.590Z,21.1
2017-12-12T00:41:26.189Z,21.1
2017-12-12T00:42:28.082Z,21.1
2017-12-12T00:43:29.980Z,21.1
2017-12-12T00:44:31.603Z,21.1
2017-12-12T00:45:33.221Z,21.1
2017-12-12T00:46:34.552Z,21.1
2017-12-12T00:47:36.448Z,21.1
2017-12-12T00:48:37.765Z,21.1
2017-12-12T00:49:39.663Z,21.1
2017-12-12T00:50:41.260Z,21.1
2017-12-12T00:51:43.154Z,21.1
2017-12-12T00:52:45.055Z,21.1
2017-12-12T00:53:46.374Z,21.1
2017-12-12T00:54:47.977Z,21.1
2017-12-12T00:55:49.019Z,21.1
2017-12-12T00:56:50.614Z,21.1
2017-12-12T00:57:51.939Z,21.1
2017-12-12T00:58:53.294Z,21
2017-12-12T00:59:54.912Z,21.1
2017-12-12T01:00:56.842Z,21.1
2017-12-12T01:01:58.445Z,21.1
2017-12-12T01:03:00.342Z,21.1
2017-12-12T01:04:01.964Z,21.1
2017-12-12T01:05:03.590Z,21.1
2017-12-12T01:06:05.178Z,21.1
2017-12-12T01:07:07.087Z,21.1
2017-12-12T01:08:08.976Z,21.1
2017-12-12T01:09:10.868Z,21.1
2017-12-12T01:10:12.765Z,21.1
2017-12-12T01:11:13.532Z,21.1
2017-12-12T01:12:15.164Z,21
2017-12-12T01:13:17.060Z,21
2017-12-12T01:14:18.400Z,21
2017-12-12T01:15:20.020Z,21.1
2017-12-12T01:16:21.916Z,21
2017-12-12T01:17:23.254Z,21.1
2017-12-12T01:18:24.917Z,21.1
2017-12-12T01:19:26.228Z,21.1
2017-12-12T01:20:27.276Z,21.1
2017-12-12T01:21:29.171Z,21.1
2017-12-12T01:22:30.220Z,21
2017-12-12T01:23:31.864Z,21
2017-12-12T01:24:33.464Z,21.1
2017-12-12T01:25:35.064Z,21
2017-12-12T01:26:36.960Z,21.1
2017-12-12T01:27:38.577Z,21
2017-12-12T01:28:40.479Z,21.1
2017-12-12T01:29:42.377Z,21
2017-12-12T01:30:43.975Z,21.1
2017-12-12T01:31:45.592Z,21
2017-12-12T01:32:47.208Z,21.1
2017-12-12T01:33:48.828Z,21.1
2017-12-12T01:34:50.722Z,21
2017-12-12T01:35:52.619Z,21.1
2017-12-12T01:36:54.515Z,21
2017-12-12T01:37:55.835Z,21
2017-12-12T01:38:57.728Z,21
2017-12-12T01:39:59.623Z,21
2017-12-12T01:41:01.245Z,21
2017-12-12T01:42:02.863Z,21.1
2017-12-12T01:43:04.459Z,21.1
2017-12-12T01:44:06.075Z,21.1
2017-12-12T01:45:07.420Z,21
2017-12-12T01:46:09.045Z,21.1
2017-12-12T01:47:10.667Z,21
2017-12-12T01:48:12.283Z,21
2017-12-12T01:49:13.625Z,21.1
2017-12-12T01:50:15.242Z,21
2017-12-12T01:51:16.863Z,21
2017-12-12T01:52:18.204Z,21
2017-12-12T01:53:20.099Z,20.9
2017-12-12T01:54:21.417Z,21
2017-12-12T01:55:23.037Z,21.1
2017-12-12T01:56:24.636Z,21
2017-12-12T01:57:26.534Z,21
2017-12-12T01:58:28.430Z,21
2017-12-12T01:59:30.026Z,21.1
2017-12-12T02:00:31.648Z,21
2017-12-12T02:01:33.267Z,21
2017-12-12T02:02:34.884Z,21
2017-12-12T02:03:36.504Z,21
2017-12-12T02:04:37.844Z,21
2017-12-12T02:05:39.739Z,21
2017-12-12T02:06:41.358Z,21
2017-12-12T02:07:43.254Z,21
2017-12-12T02:08:44.574Z,21
2017-12-12T02:09:46.472Z,20.9
2017-12-12T02:10:48.091Z,21
2017-12-12T02:11:49.985Z,21
2017-12-12T02:12:51.603Z,21
2017-12-12T02:13:53.223Z,21
2017-12-12T02:14:55.120Z,21
2017-12-12T02:15:56.752Z,21
2017-12-12T02:16:58.646Z,20.9
2017-12-12T02:18:00.314Z,21
2017-12-12T02:19:01.379Z,20.9
2017-12-12T02:20:03.282Z,20.9
2017-12-12T02:21:04.894Z,20.9
2017-12-12T02:22:06.792Z,20.9
2017-12-12T02:23:08.411Z,21
2017-12-12T02:24:10.307Z,20.9
2017-12-12T02:25:12.203Z,21
2017-12-12T02:26:14.098Z,20.9
2017-12-12T02:27:15.763Z,20.9
2017-12-12T02:28:17.658Z,21
2017-12-12T02:29:19.275Z,21
2017-12-12T02:30:20.897Z,20.9
2017-12-12T02:31:22.238Z,21
2017-12-12T02:32:23.854Z,20.9
2017-12-12T02:33:25.750Z,20.9
2017-12-12T02:34:27.370Z,20.9
2017-12-12T02:35:28.972Z,21
2017-12-12T02:36:30.586Z,20.9
2017-12-12T02:37:32.205Z,21
2017-12-12T02:38:33.550Z,20.9
2017-12-12T02:39:35.445Z,20.9
2017-12-12T02:40:36.493Z,20.9
2017-12-12T02:41:38.112Z,20.9
2017-12-12T02:42:40.008Z,20.9
2017-12-12T02:43:41.354Z,20.9
2017-12-12T02:44:42.943Z,20.9
2017-12-12T02:45:44.562Z,20.9
2017-12-12T02:46:45.665Z,20.9
2017-12-12T02:47:47.574Z,20.9
2017-12-12T02:48:49.182Z,20.9
2017-12-12T02:49:50.527Z,21
2017-12-12T02:50:51.849Z,20.9
2017-12-12T02:51:53.746Z,20.9
2017-12-12T02:52:55.343Z,20.9
2017-12-12T02:53:56.967Z,20.9
2017-12-12T02:54:58.585Z,20.9
2017-12-12T02:56:00.489Z,20.9
2017-12-12T02:57:02.108Z,20.8
2017-12-12T02:58:03.726Z,20.9
2017-12-12T02:59:04.809Z,20.9
2017-12-12T03:00:06.709Z,20.9
2017-12-12T03:01:08.599Z,20.9
2017-12-12T03:02:10.195Z,20.8
2017-12-12T03:03:11.537Z,20.9
2017-12-12T03:04:13.138Z,20.8
2017-12-12T03:05:14.776Z,20.8
2017-12-12T03:06:16.384Z,20.8
2017-12-12T03:07:17.754Z,20.9
2017-12-12T03:08:19.372Z,20.9
2017-12-12T03:09:20.990Z,20.8
2017-12-12T03:10:22.890Z,20.8
2017-12-12T03:11:24.488Z,20.8
2017-12-12T03:12:26.105Z,20.9
2017-12-12T03:13:27.701Z,20.8
2017-12-12T03:14:29.020Z,20.9
2017-12-12T03:15:30.917Z,20.8
2017-12-12T03:16:32.257Z,20.8
2017-12-12T03:17:33.876Z,20.9
2017-12-12T03:18:35.773Z,20.8
2017-12-12T03:19:37.370Z,20.8
2017-12-12T03:20:38.709Z,20.8
2017-12-12T03:21:40.603Z,20.8
2017-12-12T03:22:42.500Z,20.8
2017-12-12T03:23:44.393Z,20.8
2017-12-12T03:24:46.014Z,20.8
2017-12-12T03:25:47.908Z,20.8
2017-12-12T03:26:49.804Z,20.8
2017-12-12T03:27:51.405Z,20.8
2017-12-12T03:28:53.301Z,20.8
2017-12-12T03:29:54.621Z,20.8
2017-12-12T03:30:55.965Z,20.8
2017-12-12T03:31:57.859Z,20.8
2017-12-12T03:32:59.754Z,20.8
2017-12-12T03:34:01.652Z,20.8
2017-12-12T03:35:03.548Z,20.8
2017-12-12T03:36:04.905Z,20.7
2017-12-12T03:37:06.523Z,20.8
2017-12-12T03:38:07.853Z,20.8
2017-12-12T03:39:08.903Z,20.8
2017-12-12T03:40:10.798Z,20.8
2017-12-12T03:41:12.119Z,20.8
2017-12-12T03:42:13.719Z,20.8
2017-12-12T03:43:15.324Z,20.8
2017-12-12T03:44:16.936Z,20.8
2017-12-12T03:45:18.841Z,20.8
2017-12-12T03:46:20.440Z,20.8
2017-12-12T03:47:21.785Z,20.8
2017-12-12T03:48:23.128Z,20.8
2017-12-12T03:49:24.726Z,20.8
2017-12-12T03:50:26.619Z,20.8
2017-12-12T03:51:28.218Z,20.9
2017-12-12T03:52:29.837Z,20.8
2017-12-12T03:53:31.158Z,20.7
2017-12-12T03:54:33.068Z,20.7
2017-12-12T03:55:34.390Z,20.7
2017-12-12T03:56:36.287Z,20.7
2017-12-12T03:57:37.331Z,20.8
2017-12-12T03:58:38.928Z,20.8
2017-12-12T03:59:40.250Z,20.8
2017-12-12T04:00:41.849Z,20.8
2017-12-12T04:01:43.743Z,20.8
2017-12-12T04:02:45.406Z,20.7
2017-12-12T04:03:47.290Z,20.8
2017-12-12T04:04:49.266Z,20.7
2017-12-12T04:05:51.161Z,20.7
2017-12-12T04:06:52.783Z,20.8
2017-12-12T04:07:54.377Z,20.8
2017-12-12T04:08:56.274Z,20.8
2017-12-12T04:09:57.896Z,20.8
2017-12-12T04:10:59.792Z,20.7
2017-12-12T04:12:00.834Z,20.8
2017-12-12T04:13:02.153Z,20.8
2017-12-12T04:14:03.776Z,20.8
2017-12-12T04:15:05.373Z,20.8
2017-12-12T04:16:07.269Z,20.8
2017-12-12T04:17:09.164Z,20.7
2017-12-12T04:18:10.784Z,20.7
2017-12-12T04:19:12.131Z,20.8
2017-12-12T04:20:13.448Z,20.8
2017-12-12T04:21:14.792Z,20.7
2017-12-12T04:22:16.413Z,20.7
2017-12-12T04:23:18.306Z,20.8
2017-12-12T04:24:20.237Z,20.7
2017-12-12T04:25:21.887Z,20.7
2017-12-12T04:26:23.862Z,20.7
2017-12-12T04:27:25.756Z,20.7
2017-12-12T04:28:27.664Z,20.8
2017-12-12T04:29:28.987Z,20.7
2017-12-12T04:30:30.331Z,20.8
2017-12-12T04:31:31.651Z,20.7
2017-12-12T04:32:33.258Z,20.8
2017-12-12T04:33:34.576Z,20.7
2017-12-12T04:34:36.473Z,20.8
2017-12-12T04:35:38.374Z,20.8
2017-12-12T04:36:40.273Z,20.7
2017-12-12T04:37:41.613Z,20.8
2017-12-12T04:38:42.941Z,20.8
2017-12-12T04:39:44.561Z,20.7
2017-12-12T04:40:45.940Z,20.8
2017-12-12T04:41:47.558Z,20.7
2017-12-12T04:42:48.880Z,20.7
2017-12-12T04:43:50.799Z,20.7
2017-12-12T04:44:52.452Z,20.8
2017-12-12T04:45:53.774Z,20.7
2017-12-12T04:46:55.668Z,20.7
2017-12-12T04:47:57.009Z,20.7
2017-12-12T04:48:58.062Z,20.7
2017-12-12T04:49:59.690Z,20.7
2017-12-12T04:51:01.013Z,20.7
2017-12-12T04:52:02.332Z,20.7
2017-12-12T04:53:04.228Z,20.7
2017-12-12T04:54:05.564Z,20.7
2017-12-12T04:55:06.909Z,20.7
2017-12-12T04:56:08.528Z,20.7
2017-12-12T04:57:09.851Z,20.6
2017-12-12T04:58:11.466Z,20.7
2017-12-12T04:59:13.086Z,20.7
2017-12-12T05:00:14.429Z,20.8
2017-12-12T05:01:15.768Z,20.7
2017-12-12T05:02:17.384Z,20.7
2017-12-12T05:03:19.003Z,20.8
2017-12-12T05:04:20.345Z,20.6
2017-12-12T05:05:22.263Z,20.7
2017-12-12T05:06:23.605Z,20.7
2017-12-12T05:07:25.225Z,20.7
2017-12-12T05:08:26.545Z,20.6
2017-12-12T05:09:28.440Z,20.6
2017-12-12T05:10:30.335Z,20.7
2017-12-12T05:11:31.105Z,20.7
2017-12-12T05:12:32.999Z,20.7
2017-12-12T05:13:34.619Z,20.7
2017-12-12T05:14:36.532Z,20.8
2017-12-12T05:15:38.426Z,20.8
2017-12-12T05:16:40.044Z,20.7
2017-12-12T05:17:41.639Z,20.7
2017-12-12T05:18:43.236Z,20.8
2017-12-12T05:19:44.578Z,20.7
2017-12-12T05:20:46.194Z,20.8
2017-12-12T05:21:48.088Z,20.8
2017-12-12T05:22:49.685Z,20.8
2017-12-12T05:23:51.006Z,20.8
2017-12-12T05:24:52.623Z,20.8
2017-12-12T05:25:54.516Z,20.9
2017-12-12T05:26:56.187Z,20.8
2017-12-12T05:27:57.802Z,20.8
2017-12-12T05:28:59.142Z,20.8
2017-12-12T05:30:00.184Z,20.9
2017-12-12T05:31:01.803Z,20.9
2017-12-12T05:32:03.697Z,20.9
2017-12-12T05:33:05.316Z,20.9
2017-12-12T05:34:07.211Z,20.9
2017-12-12T05:35:09.104Z,20.9
2017-12-12T05:36:10.727Z,21
2017-12-12T05:37:12.346Z,20.9
2017-12-12T05:38:13.965Z,20.9
2017-12-12T05:39:15.580Z,21
2017-12-12T05:40:17.479Z,21
2017-12-12T05:41:19.096Z,21
2017-12-12T05:42:20.991Z,20.9
2017-12-12T05:43:22.611Z,21
2017-12-12T05:44:24.208Z,21
2017-12-12T05:45:26.103Z,20.9
2017-12-12T05:46:27.421Z,21
2017-12-12T05:47:29.329Z,20.9
2017-12-12T05:48:30.648Z,20.9
2017-12-12T05:49:32.543Z,21.1
2017-12-12T05:50:34.438Z,21
2017-12-12T05:51:36.062Z,21
2017-12-12T05:52:37.659Z,21
2017-12-12T05:53:38.742Z,20.9
2017-12-12T05:54:40.349Z,21
2017-12-12T05:55:41.392Z,21
2017-12-12T05:56:43.009Z,21
2017-12-12T05:57:44.328Z,21.1
2017-12-12T05:58:46.233Z,21
2017-12-12T05:59:47.830Z,21.1
2017-12-12T06:00:49.448Z,21
2017-12-12T06:01:51.064Z,21.1
2017-12-12T06:02:52.664Z,21.1
2017-12-12T06:03:54.562Z,21.1
2017-12-12T06:04:55.884Z,21.1
2017-12-12T06:05:57.800Z,21
2017-12-12T06:06:59.139Z,21
2017-12-12T06:08:00.760Z,21.1
2017-12-12T06:09:02.661Z,21
2017-12-12T06:10:04.258Z,21
2017-12-12T06:11:05.876Z,21.1
2017-12-12T06:12:07.476Z,21.1
2017-12-12T06:13:09.094Z,21.1
2017-12-12T06:14:10.997Z,21.1
2017-12-12T06:15:12.661Z,21.1
2017-12-12T06:16:14.257Z,21.1
2017-12-12T06:17:15.853Z,21.1
2017-12-12T06:18:17.751Z,21.1
2017-12-12T06:19:18.793Z,21.1
2017-12-12T06:20:20.686Z,21.1
2017-12-12T06:21:22.581Z,21.1
2017-12-12T06:22:23.630Z,21.1
2017-12-12T06:23:24.971Z,21.1
2017-12-12T06:24:26.593Z,21.1
2017-12-12T06:25:28.210Z,21.1
2017-12-12T06:26:29.549Z,21.1
2017-12-12T06:27:31.148Z,21.1
2017-12-12T06:28:33.043Z,21.1
2017-12-12T06:29:34.664Z,21.1
2017-12-12T06:30:35.985Z,21.1
2017-12-12T06:31:37.584Z,21.1
2017-12-12T06:32:39.180Z,21.1
2017-12-12T06:33:40.820Z,21.1
2017-12-12T06:34:41.863Z,21.1
2017-12-12T06:35:43.203Z,21.2
2017-12-12T06:36:45.100Z,21.1
2017-12-12T06:37:46.708Z,21.1
2017-12-12T06:38:48.014Z,21.1
2017-12-12T06:39:49.674Z,21.1
2017-12-12T06:40:50.720Z,21.2
2017-12-12T06:41:52.343Z,21.2
2017-12-12T06:42:53.983Z,21.1
2017-12-12T06:43:55.582Z,21.1
2017-12-12T06:44:57.476Z,21.1
2017-12-12T06:45:59.372Z,21.1
2017-12-12T06:47:00.990Z,21.1
2017-12-12T06:50:01.741Z,21.1
2017-12-12T06:51:03.117Z,21.1
2017-12-12T06:52:04.737Z,21.2
2017-12-12T06:53:06.357Z,21.1
2017-12-12T06:54:08.256Z,21.1
2017-12-12T06:55:09.602Z,21.1
2017-12-12T06:56:10.931Z,21.2
2017-12-12T06:57:12.837Z,21.1
2017-12-12T06:58:14.458Z,21.1
2017-12-12T06:59:16.085Z,21.1
2017-12-12T07:00:17.421Z,21.1
2017-12-12T07:01:18.746Z,21
2017-12-12T07:02:19.791Z,21.1
2017-12-12T07:03:21.410Z,21.1
2017-12-12T07:04:23.030Z,21.1
2017-12-12T07:05:24.928Z,21.1
2017-12-12T07:06:26.272Z,21.1
2017-12-12T07:07:27.891Z,21.1
2017-12-12T07:08:29.238Z,21.1
2017-12-12T07:09:30.581Z,21.1
2017-12-12T07:10:32.483Z,21.2
2017-12-12T07:11:34.384Z,21.1
2017-12-12T07:12:36.280Z,21.1
2017-12-12T07:13:37.883Z,21.1
2017-12-12T07:14:39.223Z,21.1
2017-12-12T07:15:41.121Z,21.1
2017-12-12T07:16:43.021Z,21.1
2017-12-12T07:17:44.354Z,21.1
2017-12-12T07:18:45.695Z,21.1
2017-12-12T07:19:47.291Z,21.1
2017-12-12T07:20:48.914Z,21.1
2017-12-12T07:21:50.260Z,21
2017-12-12T07:22:52.163Z,21.1
2017-12-12T07:23:53.787Z,21.1
2017-12-12T07:24:55.146Z,21
2017-12-12T07:25:57.046Z,21.2
2017-12-12T07:26:58.668Z,21.1
2017-12-12T07:27:59.739Z,21.1
2017-12-12T07:29:01.655Z,21.1
2017-12-12T07:30:03.336Z,21.1
2017-12-12T07:31:04.671Z,21.1
2017-12-12T07:32:06.574Z,21.1
2017-12-12T07:33:08.478Z,21.1
2017-12-12T07:34:10.375Z,21.1
2017-12-12T07:35:11.724Z,21.1
2017-12-12T07:36:13.627Z,21
2017-12-12T07:37:15.241Z,21.1
2017-12-12T07:38:16.575Z,21
2017-12-12T07:39:18.479Z,21.2
2017-12-12T07:40:20.379Z,21.1
2017-12-12T07:41:21.730Z,21.1
2017-12-12T07:42:23.056Z,21
2017-12-12T07:43:24.406Z,21.1
2017-12-12T07:44:26.311Z,21.1
2017-12-12T07:45:27.936Z,21.1
2017-12-12T07:46:29.558Z,21.1
2017-12-12T07:47:30.935Z,21.1
2017-12-12T07:48:32.548Z,21
2017-12-12T07:49:34.445Z,21.1
2017-12-12T07:50:36.343Z,21.1
2017-12-12T07:51:38.244Z,21.1
2017-12-12T07:52:39.870Z,21.1
2017-12-12T07:53:41.504Z,21.1
2017-12-12T07:54:42.829Z,21.1
2017-12-12T07:55:44.454Z,21.1
2017-12-12T07:56:46.348Z,21.1
2017-12-12T07:57:48.277Z,21
2017-12-12T07:58:49.579Z,21
2017-12-12T07:59:51.210Z,21
2017-12-12T08:00:52.840Z,21.1
2017-12-12T08:01:54.492Z,21.1
2017-12-12T08:02:55.541Z,21
2017-12-12T08:03:56.867Z,21
2017-12-12T08:04:58.222Z,21
2017-12-12T08:06:00.126Z,21.1
2017-12-12T08:07:01.206Z,21.1
2017-12-12T08:08:02.552Z,21
2017-12-12T08:09:04.477Z,21.1
2017-12-12T08:10:05.821Z,21.1
2017-12-12T08:11:06.906Z,21.1
2017-12-12T08:12:08.810Z,21
2017-12-12T08:13:10.152Z,21
2017-12-12T08:14:11.781Z,21.1
2017-12-12T08:15:12.826Z,21.1
2017-12-12T08:16:14.145Z,21
2017-12-12T08:17:15.476Z,21
2017-12-12T08:18:17.147Z,21.1
2017-12-12T08:19:17.929Z,21.1
2017-12-12T08:20:19.836Z,21
2017-12-12T08:21:21.459Z,21.1
2017-12-12T08:22:23.079Z,21
2017-12-12T08:23:24.702Z,21
2017-12-12T08:24:26.056Z,21
2017-12-12T08:25:27.673Z,21
2017-12-12T08:26:29.270Z,21
2017-12-12T08:27:31.165Z,21.1
2017-12-12T08:28:32.789Z,21.1
2017-12-12T08:29:34.130Z,21.1
2017-12-12T08:30:35.453Z,21.1
2017-12-12T08:31:37.351Z,21.1
2017-12-12T08:32:38.675Z,21.1
2017-12-12T08:33:40.298Z,21.2
2017-12-12T08:34:41.629Z,21.1
2017-12-12T08:35:43.526Z,21.2
2017-12-12T08:36:44.571Z,21.2
2017-12-12T08:37:45.915Z,21.2
2017-12-12T08:38:47.244Z,21.1
2017-12-12T08:39:49.141Z,21.1
2017-12-12T08:40:50.484Z,21.2
2017-12-12T08:41:52.386Z,21.1
2017-12-12T08:42:54.288Z,21.2
2017-12-12T08:43:56.193Z,21
2017-12-12T08:44:58.103Z,21
2017-12-12T08:46:00.071Z,21.2
2017-12-12T08:47:01.968Z,21
2017-12-12T08:48:03.016Z,21
2017-12-12T08:49:04.638Z,21.1
2017-12-12T08:50:06.262Z,21.1
2017-12-12T08:51:07.910Z,21.1
2017-12-12T08:52:09.516Z,21.1
2017-12-12T08:53:11.416Z,21
2017-12-12T08:54:12.744Z,21.1
2017-12-12T08:55:13.786Z,21.1
2017-12-12T08:56:15.389Z,21.2
2017-12-12T08:57:17.283Z,21.1
2017-12-12T08:58:19.184Z,21.2
2017-12-12T08:59:20.532Z,21.1
2017-12-12T09:00:21.874Z,21.2
2017-12-12T09:01:23.215Z,21.2
2017-12-12T09:02:24.890Z,21.1
2017-12-12T09:03:26.213Z,21.1
2017-12-12T09:04:27.839Z,21.2
2017-12-12T09:05:29.453Z,21.2
2017-12-12T09:06:31.053Z,21.1
2017-12-12T09:07:32.950Z,21.1
2017-12-12T09:08:33.995Z,21.1
2017-12-12T09:09:35.349Z,21.1
2017-12-12T09:10:37.239Z,21.1
2017-12-12T09:11:39.134Z,21.1
2017-12-12T09:12:40.754Z,21.1
2017-12-12T09:13:42.082Z,21.2
2017-12-12T09:14:43.988Z,21.1
2017-12-12T09:15:45.591Z,21.2
2017-12-12T09:16:47.208Z,21.2
2017-12-12T09:17:49.110Z,21.1
2017-12-12T09:18:50.737Z,21.1
2017-12-12T09:19:52.338Z,21.2
2017-12-12T09:20:54.240Z,21.2
2017-12-12T09:21:55.860Z,21.1
2017-12-12T09:22:57.486Z,21.2
2017-12-12T09:23:59.109Z,21.2
2017-12-12T09:25:00.730Z,21.2
2017-12-12T09:26:02.328Z,21.3
2017-12-12T09:27:03.929Z,21.3
2017-12-12T09:28:05.829Z,21.2
2017-12-12T09:29:07.452Z,21.2
2017-12-12T09:30:09.052Z,21.3
2017-12-12T09:31:10.392Z,21.2
2017-12-12T09:32:11.718Z,21.3
2017-12-12T09:33:13.658Z,21.2
2017-12-12T09:34:15.291Z,21.3
2017-12-12T09:35:16.907Z,21.2
2017-12-12T09:36:18.505Z,21.2
2017-12-12T09:37:20.400Z,21.3
2017-12-12T09:38:22.297Z,21.3
2017-12-12T09:39:23.916Z,21.3
2017-12-12T09:40:25.813Z,21.3
2017-12-12T09:41:27.711Z,21.2
2017-12-12T09:42:29.067Z,21.2
2017-12-12T09:43:30.960Z,21.3
2017-12-12T09:44:31.729Z,21.3
2017-12-12T09:45:33.134Z,21.3
2017-12-12T09:46:34.755Z,21.3
2017-12-12T09:47:36.378Z,21.3
2017-12-12T09:48:38.276Z,21.3
2017-12-12T09:49:40.176Z,21.4
2017-12-12T09:50:41.800Z,21.3
2017-12-12T09:51:43.399Z,21.3
2017-12-12T09:52:45.298Z,21.3
2017-12-12T09:53:47.196Z,21.2
2017-12-12T09:54:48.541Z,21.3
2017-12-12T09:55:50.437Z,21.3
2017-12-12T09:56:52.061Z,21.3
2017-12-12T09:57:53.960Z,21.4
2017-12-12T09:58:55.278Z,21.3
2017-12-12T09:59:57.177Z,21.3
2017-12-12T10:00:58.798Z,21.4
2017-12-12T10:02:00.402Z,21.3
2017-12-12T10:03:02.079Z,21.3
2017-12-12T10:04:03.127Z,21.3
2017-12-12T10:05:04.451Z,21.3
2017-12-12T10:06:06.471Z,21.3
2017-12-12T10:07:07.559Z,21.4
2017-12-12T10:08:09.176Z,21.3
2017-12-12T10:09:10.797Z,21.4
2017-12-12T10:10:12.428Z,21.3
2017-12-12T10:11:13.497Z,21.3
2017-12-12T10:12:14.844Z,21.3
2017-12-12T10:13:16.171Z,21.4
2017-12-12T10:14:17.790Z,21.3
2017-12-12T10:15:19.138Z,21.3
2017-12-12T10:16:21.040Z,21.3
2017-12-12T10:17:22.667Z,21.3
2017-12-12T10:18:24.012Z,21.3
2017-12-12T10:19:25.083Z,21.3
2017-12-12T10:20:26.686Z,21.4
2017-12-12T10:21:28.325Z,21.4
2017-12-12T10:22:29.737Z,21.4
2017-12-12T10:23:31.361Z,21.4
2017-12-12T10:24:32.703Z,21.4
2017-12-12T10:25:34.325Z,21.4
2017-12-12T10:26:35.370Z,21.4
2017-12-12T10:27:36.981Z,21.3
2017-12-12T10:28:38.879Z,21.4
2017-12-12T10:29:40.779Z,21.4
2017-12-12T10:30:42.678Z,21.4
2017-12-12T10:31:44.317Z,21.4
2017-12-12T10:32:45.665Z,21.4
2017-12-12T10:33:47.006Z,21.4
2017-12-12T10:34:48.620Z,21.4
2017-12-12T10:35:50.243Z,21.4
2017-12-12T10:36:52.145Z,21.4
2017-12-12T10:37:53.495Z,21.4
2017-12-12T10:38:54.821Z,21.5
2017-12-12T10:39:56.149Z,21.4
2017-12-12T10:40:57.493Z,21.5
2017-12-12T10:41:59.119Z,21.5
2017-12-12T10:43:00.188Z,21.4
2017-12-12T10:44:02.093Z,21.4
2017-12-12T10:45:03.139Z,21.5
2017-12-12T10:46:04.759Z,21.4
2017-12-12T10:47:06.387Z,21.4
2017-12-12T10:48:07.436Z,21.4
2017-12-12T10:49:08.509Z,21.5
2017-12-12T10:50:10.114Z,21.4
2017-12-12T10:51:11.182Z,21.4
2017-12-12T10:52:12.530Z,21.5
2017-12-12T10:53:14.434Z,21.4
2017-12-12T10:54:16.336Z,21.4
2017-12-12T10:55:17.938Z,21.4
2017-12-12T10:56:19.841Z,21.4
2017-12-12T10:57:21.465Z,21.4
2017-12-12T10:58:23.113Z,21.4
2017-12-12T10:59:24.162Z,21.4
2017-12-12T11:00:25.503Z,21.4
2017-12-12T11:01:27.124Z,21.5
2017-12-12T11:02:28.471Z,21.4
2017-12-12T11:03:30.371Z,21.4
2017-12-12T11:04:31.717Z,21.4
2017-12-12T11:05:33.171Z,21.4
2017-12-12T11:06:35.072Z,21.4
2017-12-12T11:07:36.421Z,21.5
2017-12-12T11:08:38.022Z,21.5
2017-12-12T11:09:39.709Z,21.5
2017-12-12T11:10:41.331Z,21.5
2017-12-12T11:11:42.658Z,21.5
2017-12-12T11:12:43.985Z,21.5
2017-12-12T11:13:45.607Z,21.4
2017-12-12T11:14:47.229Z,21.5
2017-12-12T11:15:48.852Z,21.5
2017-12-12T11:16:49.918Z,21.4
2017-12-12T11:17:51.517Z,21.5
2017-12-12T11:18:52.843Z,21.5
2017-12-12T11:19:54.743Z,21.6
2017-12-12T11:20:56.364Z,21.5
2017-12-12T11:21:57.419Z,21.5
2017-12-12T11:22:59.320Z,21.6
2017-12-12T11:24:00.687Z,21.5
2017-12-12T11:25:02.597Z,21.4
2017-12-12T11:26:04.198Z,21.6
2017-12-12T11:27:05.554Z,21.6
2017-12-12T11:28:07.177Z,21.5
2017-12-12T11:29:09.140Z,21.5
2017-12-12T11:30:11.040Z,21.5
2017-12-12T11:31:12.117Z,21.5
2017-12-12T11:32:14.020Z,21.5
2017-12-12T11:33:15.469Z,21.5
2017-12-12T11:34:16.822Z,21.5
2017-12-12T11:35:18.176Z,21.6
2017-12-12T11:36:19.535Z,21.4
2017-12-12T11:37:21.132Z,21.5
2017-12-12T11:38:22.756Z,21.5
2017-12-12T11:39:23.807Z,21.5
2017-12-12T11:40:25.708Z,21.5
2017-12-12T11:41:27.049Z,21.5
2017-12-12T11:42:28.955Z,21.5
2017-12-12T11:43:30.103Z,21.5
2017-12-12T11:44:31.934Z,21.5
2017-12-12T11:45:33.556Z,21.5
2017-12-12T11:46:35.460Z,21.5
2017-12-12T11:47:36.536Z,21.5
2017-12-12T11:48:38.156Z,21.5
2017-12-12T11:49:39.880Z,21.6
2017-12-12T11:50:41.507Z,21.6
2017-12-12T11:51:42.852Z,21.6
2017-12-12T11:52:44.213Z,21.5
2017-12-12T11:53:46.223Z,21.6
2017-12-12T11:54:47.428Z,21.6
2017-12-12T11:55:48.759Z,21.6
2017-12-12T11:56:50.388Z,21.6
2017-12-12T11:57:52.039Z,21.6
2017-12-12T11:58:53.421Z,21.6
2017-12-12T11:59:55.031Z,21.6
2017-12-12T12:00:56.640Z,21.6
2017-12-12T12:01:58.008Z,21.6
2017-12-12T12:02:59.616Z,21.6
2017-12-12T12:04:01.615Z,21.6
2017-12-12T12:05:03.239Z,21.6
2017-12-12T12:06:04.852Z,21.6
2017-12-12T12:07:06.175Z,21.6
2017-12-12T12:08:08.076Z,21.6
2017-12-12T12:09:09.976Z,21.6
2017-12-12T12:10:11.602Z,21.6
2017-12-12T12:11:13.224Z,21.6
2017-12-12T12:12:14.859Z,21.5
2017-12-12T12:13:16.473Z,21.6
2017-12-12T12:14:17.796Z,21.6
2017-12-12T12:15:19.139Z,21.6
2017-12-12T12:16:20.483Z,21.6
2017-12-12T12:17:22.390Z,21.6
2017-12-12T12:18:23.753Z,21.6
2017-12-12T12:19:25.099Z,21.6
2017-12-12T12:20:26.727Z,21.6
2017-12-12T12:21:28.060Z,21.6
2017-12-12T12:22:29.697Z,21.5
2017-12-12T12:23:31.034Z,21.6
2017-12-12T12:24:32.710Z,21.6
2017-12-12T12:25:34.617Z,21.6
2017-12-12T12:26:36.523Z,21.6
2017-12-12T12:27:38.434Z,21.6
2017-12-12T12:28:39.890Z,21.7
2017-12-12T12:29:41.796Z,21.5
2017-12-12T12:30:43.140Z,21.6
2017-12-12T12:31:44.198Z,21.5
2017-12-12T12:32:46.100Z,21.6
2017-12-12T12:33:47.450Z,21.7
2017-12-12T12:34:49.394Z,21.5
2017-12-12T12:35:51.882Z,21.6
2017-12-12T12:36:53.552Z,21.5
2017-12-12T12:37:55.276Z,21.6
2017-12-12T12:38:56.401Z,21.5
2017-12-12T12:39:57.742Z,21.6
2017-12-12T12:40:59.650Z,21.5
2017-12-12T12:42:01.545Z,21.6
2017-12-12T12:43:03.451Z,21.6
2017-12-12T12:44:04.802Z,21.6
2017-12-12T12:45:06.703Z,21.6
2017-12-12T12:46:08.028Z,21.6
2017-12-12T12:47:09.355Z,21.6
2017-12-12T12:48:10.681Z,21.6
2017-12-12T12:49:12.581Z,21.6
2017-12-12T12:50:14.529Z,21.6
2017-12-12T12:51:16.428Z,21.6
2017-12-12T12:52:18.335Z,21.6
2017-12-12T12:53:20.234Z,21.6
2017-12-12T12:54:21.841Z,21.5
2017-12-12T12:55:23.460Z,21.6
2017-12-12T12:56:25.360Z,21.5
2017-12-12T12:57:26.682Z,21.6
2017-12-12T12:58:28.286Z,21.6
2017-12-12T12:59:29.910Z,21.6
2017-12-12T13:00:31.237Z,21.6
2017-12-12T13:01:33.137Z,21.5
2017-12-12T13:02:34.738Z,21.6
2017-12-12T13:03:36.639Z,21.6
2017-12-12T13:04:37.981Z,21.6
2017-12-12T13:05:39.326Z,21.6
2017-12-12T13:06:41.226Z,21.5
2017-12-12T13:07:43.129Z,21.5
2017-12-12T13:08:45.028Z,21.5
2017-12-12T13:09:46.930Z,21.6
2017-12-12T13:10:48.546Z,21.6
2017-12-12T13:11:50.151Z,21.6
2017-12-12T13:12:51.769Z,21.6
2017-12-12T13:13:53.111Z,21.7
2017-12-12T13:14:54.442Z,21.6
2017-12-12T13:15:56.342Z,21.7
2017-12-12T13:16:57.106Z,21.7
2017-12-12T13:17:58.432Z,21.7
2017-12-12T13:19:00.329Z,21.7
2017-12-12T13:20:02.230Z,21.7
2017-12-12T13:21:04.131Z,21.7
2017-12-12T13:22:05.458Z,21.7
2017-12-12T13:23:06.506Z,21.7
2017-12-12T13:24:08.406Z,21.7
2017-12-12T13:25:09.729Z,21.7
2017-12-12T13:26:11.350Z,21.7
2017-12-12T13:27:12.695Z,21.7
2017-12-12T13:28:14.291Z,21.7
2017-12-12T13:29:16.245Z,21.7
2017-12-12T13:30:17.864Z,21.7
2017-12-12T13:31:19.768Z,21.7
2017-12-12T13:32:21.090Z,21.7
2017-12-12T13:33:22.989Z,21.7
2017-12-12T13:34:24.891Z,21.7
2017-12-12T13:35:26.236Z,21.7
2017-12-12T13:36:28.135Z,21.7
2017-12-12T13:37:29.791Z,21.8
2017-12-12T13:38:31.114Z,21.7
2017-12-12T13:39:32.436Z,21.8
2017-12-12T13:40:34.063Z,21.8
2017-12-12T13:41:35.673Z,21.7
2017-12-12T13:42:37.291Z,21.7
2017-12-12T13:43:38.911Z,21.7
2017-12-12T13:44:40.538Z,21.8
2017-12-12T13:45:42.165Z,21.7
2017-12-12T13:48:17.601Z,21.7
2017-12-12T13:49:19.220Z,21.8
2017-12-12T13:50:20.265Z,21.7